createdAt,value
2018-09-10T00:01:54.880Z,5.77
2018-09-10T00:04:24.859Z,6.27
2018-09-10T00:06:54.910Z,5.00
2018-09-10T00:09:24.931Z,5.23
2018-09-10T00:11:54.876Z,6.23
2018-09-10T00:14:24.831Z,5.43
2018-09-10T00:16:54.771Z,5.83
2018-09-10T00:19:24.813Z,5.97
2018-09-10T00:21:54.734Z,5.80
2018-09-10T00:24:24.761Z,5.33
2018-09-10T00:26:54.666Z,5.10
2018-09-10T00:29:24.638Z,5.60
2018-09-10T00:31:54.614Z,5.93
2018-09-10T00:34:24.588Z,5.50
2018-09-10T00:36:54.564Z,5.97
2018-09-10T00:39:24.492Z,5.00
2018-09-10T00:41:54.459Z,5.00
2018-09-10T00:44:24.491Z,4.43
2018-09-10T00:46:54.814Z,4.67
2018-09-10T00:49:24.764Z,4.70
2018-09-10T00:51:54.674Z,3.40
2018-09-10T00:54:24.734Z,4.13
2018-09-10T00:56:54.639Z,3.50
2018-09-10T00:59:24.624Z,4.10
2018-09-10T01:01:54.632Z,3.77
2018-09-10T01:04:24.564Z,4.50
2018-09-10T01:06:54.626Z,4.07
2018-09-10T01:09:24.575Z,4.10
2018-09-10T01:11:54.580Z,4.20
2018-09-10T01:14:24.574Z,3.80
2018-09-10T01:16:54.582Z,4.00
2018-09-10T01:19:24.590Z,4.67
2018-09-10T01:21:54.599Z,4.00
2018-09-10T01:24:24.587Z,4.90
2018-09-10T01:26:54.560Z,4.27
2018-09-10T01:29:24.477Z,4.40
2018-09-10T01:31:54.494Z,4.20
2018-09-10T01:34:30.542Z,3.60
2018-09-10T01:37:00.580Z,3.60
2018-09-10T01:39:30.524Z,3.80
2018-09-10T01:42:00.470Z,3.90
2018-09-10T01:44:30.469Z,4.47
2018-09-10T01:47:00.476Z,4.30
2018-09-10T01:49:30.463Z,3.70
2018-09-10T01:52:00.560Z,3.60
2018-09-10T01:54:37.253Z,3.93
2018-09-10T01:57:07.444Z,4.23
2018-09-10T01:59:37.484Z,4.60
2018-09-10T02:02:07.595Z,4.90
2018-09-10T02:04:37.652Z,5.00
2018-09-10T02:07:07.727Z,3.63
2018-09-10T02:09:37.748Z,4.17
2018-09-10T02:12:11.813Z,4.63
2018-09-10T02:14:41.821Z,4.70
2018-09-10T02:17:11.971Z,4.60
2018-09-10T02:19:42.012Z,4.00
2018-09-10T02:22:12.015Z,4.03
2018-09-10T02:24:41.984Z,3.63
2018-09-10T02:27:11.931Z,3.30
2018-09-10T02:29:41.959Z,4.83
2018-09-10T02:32:11.885Z,4.47
2018-09-10T02:34:41.846Z,4.20
2018-09-10T02:37:11.783Z,3.90
2018-09-10T02:39:42.075Z,3.77
2018-09-10T02:42:12.112Z,4.07
2018-09-10T02:44:42.113Z,5.40
2018-09-10T02:47:12.066Z,5.20
2018-09-10T02:49:41.992Z,4.97
2018-09-10T02:52:11.899Z,4.63
2018-09-10T02:54:42.021Z,4.80
2018-09-10T02:57:11.930Z,4.70
2018-09-10T02:59:41.902Z,4.93
2018-09-10T03:02:11.859Z,5.03
2018-09-10T03:04:44.215Z,4.13
2018-09-10T03:07:15.607Z,5.20
2018-09-10T03:09:45.888Z,4.03
2018-09-10T03:12:16.117Z,5.90
2018-09-10T03:14:46.199Z,5.17
2018-09-10T03:17:16.552Z,5.03
2018-09-10T03:19:46.522Z,4.77
2018-09-10T03:22:16.751Z,4.80
2018-09-10T03:24:46.913Z,4.37
2018-09-10T03:27:16.905Z,4.70
2018-09-10T03:29:47.232Z,3.80
2018-09-10T03:32:17.364Z,4.33
2018-09-10T03:34:47.380Z,5.03
2018-09-10T03:37:17.369Z,4.23
2018-09-10T03:39:47.339Z,4.77
2018-09-10T03:42:17.366Z,4.23
2018-09-10T03:44:47.345Z,4.70
2018-09-10T03:47:17.398Z,4.10
2018-09-10T03:49:47.315Z,4.87
2018-09-10T03:52:17.446Z,4.97
2018-09-10T03:54:47.413Z,5.10
2018-09-10T03:57:17.401Z,6.70
2018-09-10T03:59:47.395Z,4.97
2018-09-10T04:02:17.458Z,4.77
2018-09-10T04:04:53.807Z,5.13
2018-09-10T04:07:23.767Z,4.40
2018-09-10T04:09:53.746Z,4.40
2018-09-10T04:12:23.791Z,3.83
2018-09-10T04:14:53.819Z,4.57
2018-09-10T04:17:23.872Z,5.27
2018-09-10T04:19:58.204Z,4.40
2018-09-10T04:22:28.546Z,5.00
2018-09-10T04:24:58.584Z,4.83
2018-09-10T04:27:28.793Z,5.00
2018-09-10T04:29:58.771Z,4.63
2018-09-10T04:32:28.802Z,4.63
2018-09-10T04:35:05.757Z,4.73
2018-09-10T04:37:35.816Z,5.30
2018-09-10T04:40:05.954Z,5.83
2018-09-10T04:42:36.028Z,4.50
2018-09-10T04:45:06.343Z,5.47
2018-09-10T04:47:36.298Z,6.47
2018-09-10T04:50:07.253Z,5.50
2018-09-10T04:52:37.255Z,5.80
2018-09-10T04:55:07.309Z,6.47
2018-09-10T04:57:37.277Z,9.40
2018-09-10T05:00:07.326Z,6.73
2018-09-10T05:02:37.375Z,5.93
2018-09-10T05:05:07.452Z,6.47
2018-09-10T05:07:37.496Z,5.50
2018-09-10T05:10:07.651Z,6.40
2018-09-10T05:12:37.608Z,5.50
2018-09-10T05:15:07.684Z,5.53
2018-09-10T05:17:37.635Z,6.20
2018-09-10T05:20:07.637Z,6.50
2018-09-10T05:22:37.827Z,5.43
2018-09-10T05:25:07.767Z,5.77
2018-09-10T05:27:37.975Z,5.37
2018-09-10T05:30:07.926Z,6.07
2018-09-10T05:32:37.883Z,7.30
2018-09-10T05:35:07.915Z,6.40
2018-09-10T05:37:37.991Z,5.93
2018-09-10T05:40:09.610Z,6.17
2018-09-10T05:42:39.743Z,6.43
2018-09-10T05:45:11.750Z,6.37
2018-09-10T05:47:42.008Z,5.60
2018-09-10T05:50:12.711Z,7.00
2018-09-10T05:52:42.815Z,6.07
2018-09-10T05:55:12.839Z,6.53
2018-09-10T05:57:42.799Z,5.67
2018-09-10T06:00:12.742Z,6.97
2018-09-10T06:02:42.795Z,5.27
2018-09-10T06:05:12.839Z,5.33
2018-09-10T06:07:42.748Z,5.37
2018-09-10T06:10:12.846Z,5.17
2018-09-10T06:12:43.031Z,4.40
2018-09-10T06:15:12.985Z,5.40
2018-09-10T06:17:43.989Z,4.70
2018-09-10T06:20:13.995Z,5.03
2018-09-10T06:22:43.994Z,4.53
2018-09-10T06:25:14.071Z,4.30
2018-09-10T06:27:44.144Z,5.10
2018-09-10T06:30:14.221Z,5.47
2018-09-10T06:32:44.322Z,4.93
2018-09-10T06:35:14.338Z,5.43
2018-09-10T06:37:44.427Z,4.60
2018-09-10T06:40:14.854Z,4.13
2018-09-10T06:42:44.939Z,3.60
2018-09-10T06:45:14.881Z,4.60
2018-09-10T06:47:44.898Z,4.20
2018-09-10T06:50:15.037Z,4.57
2018-09-10T06:52:45.043Z,4.80
2018-09-10T06:55:15.077Z,4.03
2018-09-10T06:57:45.057Z,5.37
2018-09-10T07:00:15.103Z,3.27
2018-09-10T07:02:45.094Z,3.87
2018-09-10T07:05:15.176Z,4.80
2018-09-10T07:07:45.240Z,2.80
2018-09-10T07:10:16.659Z,3.77
2018-09-10T07:12:46.775Z,3.70
2018-09-10T07:15:16.854Z,3.17
2018-09-10T07:17:46.978Z,3.30
2018-09-10T07:20:17.056Z,3.20
2018-09-10T07:22:47.090Z,3.33
2018-09-10T07:25:17.089Z,2.97
2018-09-10T07:27:47.148Z,2.83
2018-09-10T07:30:17.200Z,3.20
2018-09-10T07:32:47.229Z,2.77
2018-09-10T07:35:27.971Z,2.30
2018-09-10T07:37:59.229Z,2.77
2018-09-10T07:40:29.987Z,2.57
2018-09-10T07:43:00.051Z,2.10
2018-09-10T07:45:34.818Z,3.20
2018-09-10T07:48:05.594Z,2.63
2018-09-10T07:50:53.052Z,2.30
2018-09-10T07:53:40.793Z,1.73
2018-09-10T07:57:23.315Z,2.40
2018-09-10T08:00:03.199Z,2.30
2018-09-10T08:02:33.741Z,2.30
2018-09-10T08:05:03.751Z,2.10
2018-09-10T08:07:33.733Z,1.67
2018-09-10T08:10:09.903Z,1.73
2018-09-10T08:12:39.972Z,2.40
2018-09-10T08:15:10.046Z,1.87
2018-09-10T08:17:40.396Z,2.30
2018-09-10T08:20:10.479Z,1.97
2018-09-10T08:22:40.529Z,2.10
2018-09-10T08:25:10.549Z,1.60
2018-09-10T08:27:40.511Z,1.50
2018-09-10T08:30:10.540Z,1.60
2018-09-10T08:32:40.491Z,2.00
2018-09-10T08:35:10.694Z,2.43
2018-09-10T08:37:40.751Z,1.50
2018-09-10T08:40:10.839Z,2.00
2018-09-10T08:42:40.892Z,1.80
2018-09-10T08:45:10.911Z,1.30
2018-09-10T08:47:40.930Z,1.30
2018-09-10T08:50:10.991Z,1.60
2018-09-10T08:52:41.208Z,1.30
2018-09-10T08:55:11.375Z,1.90
2018-09-10T08:57:41.308Z,1.53
2018-09-10T09:00:11.350Z,1.90
2018-09-10T09:02:41.477Z,1.93
2018-09-10T09:05:11.446Z,2.00
2018-09-10T09:07:41.519Z,1.73
2018-09-10T09:10:11.500Z,1.80
2018-09-10T09:12:41.563Z,1.10
2018-09-10T09:15:11.592Z,1.77
2018-09-10T09:17:41.543Z,1.30
2018-09-10T09:20:11.539Z,2.00
2018-09-10T09:22:41.609Z,1.53
2018-09-10T09:25:11.617Z,1.67
2018-09-10T09:27:41.555Z,1.70
2018-09-10T09:30:11.580Z,1.53
2018-09-10T09:32:41.630Z,3.67
2018-09-10T09:35:11.632Z,3.80
2018-09-10T09:37:47.114Z,3.13
2018-09-10T09:40:22.589Z,2.40
2018-09-10T09:42:58.025Z,2.63
2018-09-10T09:45:33.251Z,2.67
2018-09-10T09:48:03.296Z,2.30
2018-09-10T09:50:33.313Z,2.27
2018-09-10T09:53:03.424Z,2.63
2018-09-10T09:55:33.465Z,3.22
2018-09-10T09:58:03.441Z,3.30
2018-09-10T10:00:39.169Z,2.23
2018-09-10T10:03:15.119Z,2.00
2018-09-10T10:05:45.385Z,3.40
2018-09-10T10:08:15.349Z,5.93
2018-09-10T10:10:45.614Z,3.50
2018-09-10T10:13:15.722Z,2.67
2018-09-10T10:15:45.687Z,2.93
2018-09-10T10:18:15.755Z,1.73
2018-09-10T10:20:45.763Z,1.50
2018-09-10T10:23:15.762Z,2.63
2018-09-10T10:25:45.776Z,2.20
2018-09-10T10:28:15.801Z,1.90
2018-09-10T10:30:45.781Z,2.90
2018-09-10T10:33:15.759Z,1.97
2018-09-10T10:35:45.817Z,1.80
2018-09-10T10:38:15.904Z,1.87
2018-09-10T10:40:45.889Z,1.93
2018-09-10T10:43:16.022Z,1.67
2018-09-10T10:45:46.089Z,2.07
2018-09-10T10:48:16.169Z,1.17
2018-09-10T10:50:46.127Z,1.60
2018-09-10T10:53:16.188Z,1.67
2018-09-10T10:55:46.269Z,1.50
2018-09-10T10:58:16.248Z,1.63
2018-09-10T11:00:46.298Z,1.40
2018-09-10T11:03:16.305Z,1.70
2018-09-10T11:05:46.246Z,1.40
2018-09-10T11:08:16.263Z,0.90
2018-09-10T11:10:46.184Z,1.80
2018-09-10T11:13:16.249Z,1.53
2018-09-10T11:15:46.351Z,1.43
2018-09-10T11:18:16.341Z,1.50
2018-09-10T11:20:46.292Z,1.40
2018-09-10T11:23:16.243Z,1.77
2018-09-10T11:25:53.051Z,1.80
2018-09-10T11:28:23.240Z,1.30
2018-09-10T11:30:53.544Z,1.33
2018-09-10T11:33:23.534Z,1.40
2018-09-10T11:35:53.641Z,1.23
2018-09-10T11:38:23.651Z,1.67
2018-09-10T11:40:53.688Z,1.40
2018-09-10T11:43:23.617Z,1.77
2018-09-10T11:45:53.566Z,2.37
2018-09-10T11:48:23.644Z,1.50
2018-09-10T11:50:53.687Z,1.77
2018-09-10T11:53:23.791Z,1.13
2018-09-10T11:55:53.821Z,1.77
2018-09-10T11:58:23.802Z,1.47
2018-09-10T12:00:53.814Z,1.20
2018-09-10T12:03:23.823Z,1.60
2018-09-10T12:05:53.889Z,1.57
2018-09-10T12:08:23.946Z,1.50
2018-09-10T12:10:54.002Z,1.50
2018-09-10T12:13:24.081Z,1.40
2018-09-10T12:15:54.056Z,1.23
2018-09-10T12:18:24.047Z,1.13
2018-09-10T12:20:54.113Z,1.20
2018-09-10T12:23:24.086Z,1.50
2018-09-10T12:25:54.136Z,1.60
2018-09-10T12:28:24.127Z,2.27
2018-09-10T12:30:54.115Z,1.13
2018-09-10T12:33:24.180Z,1.23
2018-09-10T12:35:54.211Z,1.10
2018-09-10T12:38:24.146Z,1.13
2018-09-10T12:40:54.127Z,2.00
2018-09-10T12:43:24.137Z,1.67
2018-09-10T12:45:54.066Z,1.47
2018-09-10T12:48:24.046Z,1.20
2018-09-10T12:50:54.106Z,1.40
2018-09-10T12:53:24.150Z,1.50
2018-09-10T12:55:54.380Z,1.27
2018-09-10T12:58:24.338Z,1.70
2018-09-10T13:00:54.528Z,1.20
2018-09-10T13:03:24.545Z,1.30
2018-09-10T13:05:54.508Z,1.50
2018-09-10T13:08:24.504Z,1.33
2018-09-10T13:10:54.495Z,1.23
2018-09-10T13:13:24.446Z,1.40
2018-09-10T13:15:54.399Z,1.43
2018-09-10T13:18:24.627Z,1.10
2018-09-10T13:20:54.696Z,1.60
2018-09-10T13:23:24.649Z,1.43
2018-09-10T13:25:54.601Z,1.60
2018-09-10T13:28:24.901Z,1.73
2018-09-10T13:30:54.844Z,1.10
2018-09-10T13:33:24.862Z,1.50
2018-09-10T13:35:54.974Z,1.67
2018-09-10T13:38:24.902Z,1.30
2018-09-10T13:40:54.854Z,1.30
2018-09-10T13:43:24.798Z,1.37
2018-09-10T13:45:54.755Z,2.07
2018-09-10T13:48:24.683Z,1.90
2018-09-10T13:50:54.734Z,1.40
2018-09-10T13:53:24.768Z,1.83
2018-09-10T13:55:54.686Z,1.53
2018-09-10T13:58:24.663Z,1.50
2018-09-10T14:00:54.650Z,1.43
2018-09-10T14:03:24.591Z,1.63
2018-09-10T14:05:54.570Z,1.40
2018-09-10T14:08:24.523Z,1.80
2018-09-10T14:10:54.464Z,1.37
2018-09-10T14:13:24.414Z,1.60
2018-09-10T14:15:54.411Z,1.20
2018-09-10T14:18:24.484Z,1.40
2018-09-10T14:20:54.638Z,1.40
2018-09-10T14:23:24.624Z,1.50
2018-09-10T14:25:54.677Z,0.93
2018-09-10T14:28:24.731Z,1.03
2018-09-10T14:30:54.662Z,1.10
2018-09-10T14:33:24.601Z,1.20
2018-09-10T14:35:54.580Z,1.63
2018-09-10T14:38:24.521Z,1.70
2018-09-10T14:40:55.572Z,1.40
2018-09-10T14:43:25.490Z,1.50
2018-09-10T14:45:55.449Z,1.70
2018-09-10T14:48:25.475Z,1.70
2018-09-10T14:50:55.384Z,1.50
2018-09-10T14:53:25.362Z,1.90
2018-09-10T14:55:55.339Z,1.27
2018-09-10T14:58:25.342Z,1.57
2018-09-10T15:00:55.307Z,1.33
2018-09-10T15:03:25.291Z,1.40
2018-09-10T15:05:55.314Z,1.03
2018-09-10T15:08:25.237Z,1.77
2018-09-10T15:10:55.131Z,1.30
2018-09-10T15:13:25.062Z,1.20
2018-09-10T15:15:55.134Z,1.60
2018-09-10T15:18:25.192Z,1.20
2018-09-10T15:20:55.034Z,1.33
2018-09-10T15:23:25.012Z,1.30
2018-09-10T15:25:55.030Z,1.40
2018-09-10T15:28:25.048Z,1.20
2018-09-10T15:30:55.007Z,1.80
2018-09-10T15:33:24.962Z,1.60
2018-09-10T15:35:54.931Z,1.70
2018-09-10T15:38:24.915Z,2.10
2018-09-10T15:40:54.816Z,1.50
2018-09-10T15:43:37.327Z,1.50
2018-09-10T15:46:07.478Z,2.00
2018-09-10T15:48:37.569Z,1.83
2018-09-10T15:51:07.593Z,1.40
2018-09-10T15:53:37.535Z,1.93
2018-09-10T15:56:07.578Z,1.30
2018-09-10T15:58:38.623Z,1.57
2018-09-10T16:01:08.588Z,1.73
2018-09-10T16:03:38.553Z,1.50
2018-09-10T16:06:08.543Z,1.57
2018-09-10T16:08:38.519Z,2.17
2018-09-10T16:11:08.599Z,2.43
2018-09-10T16:13:38.592Z,2.70
2018-09-10T16:16:08.522Z,1.77
2018-09-10T16:18:38.564Z,1.60
2018-09-10T16:21:08.592Z,1.90
2018-09-10T16:23:38.904Z,2.20
2018-09-10T16:26:08.909Z,2.17
2018-09-10T16:28:38.938Z,2.67
2018-09-10T16:31:08.951Z,1.50
2018-09-10T16:33:38.926Z,2.20
2018-09-10T16:36:08.919Z,1.10
2018-09-10T16:38:38.902Z,2.10
2018-09-10T16:41:08.887Z,5.10
2018-09-10T16:43:39.270Z,3.43
2018-09-10T16:46:09.263Z,2.43
2018-09-10T16:48:39.206Z,3.10
2018-09-10T16:51:09.219Z,3.40
2018-09-10T16:53:39.381Z,1.70
2018-09-10T16:56:09.363Z,2.40
2018-09-10T16:58:39.497Z,2.20
2018-09-10T17:01:09.582Z,2.30
2018-09-10T17:03:39.623Z,1.77
2018-09-10T17:06:09.678Z,1.77
2018-09-10T17:08:39.775Z,2.23
2018-09-10T17:11:09.753Z,2.27
2018-09-10T17:13:39.678Z,3.03
2018-09-10T17:16:09.782Z,2.60
2018-09-10T17:18:39.718Z,3.80
2018-09-10T17:21:09.774Z,2.53
2018-09-10T17:23:39.791Z,2.30
2018-09-10T17:26:10.047Z,2.60
2018-09-10T17:28:40.066Z,2.20
2018-09-10T17:31:10.119Z,2.47
2018-09-10T17:33:40.158Z,2.37
2018-09-10T17:36:10.234Z,2.07
2018-09-10T17:38:40.507Z,2.80
2018-09-10T17:41:10.521Z,2.53
2018-09-10T17:43:40.500Z,2.20
2018-09-10T17:46:10.521Z,2.03
2018-09-10T17:48:40.581Z,2.27
2018-09-10T17:51:10.643Z,1.83
2018-09-10T17:53:40.601Z,1.77
2018-09-10T17:56:10.587Z,2.27
2018-09-10T17:58:40.602Z,2.33
2018-09-10T18:01:10.610Z,2.53
2018-09-10T18:03:40.631Z,2.40
2018-09-10T18:06:10.576Z,2.20
2018-09-10T18:08:40.602Z,2.60
2018-09-10T18:11:10.715Z,3.17
2018-09-10T18:13:40.687Z,2.67
2018-09-10T18:16:10.699Z,2.40
2018-09-10T18:18:40.767Z,2.43
2018-09-10T18:21:10.801Z,2.30
2018-09-10T18:23:40.788Z,1.97
2018-09-10T18:26:10.804Z,2.50
2018-09-10T18:28:40.932Z,2.17
2018-09-10T18:31:11.026Z,2.13
2018-09-10T18:33:41.075Z,2.97
2018-09-10T18:36:11.068Z,2.07
2018-09-10T18:38:41.105Z,2.30
2018-09-10T18:41:11.122Z,3.13
2018-09-10T18:43:41.159Z,2.50
2018-09-10T18:46:11.235Z,2.50
2018-09-10T18:48:41.314Z,2.60
2018-09-10T18:51:11.533Z,2.60
2018-09-10T18:53:41.503Z,3.27
2018-09-10T18:56:11.512Z,2.47
2018-09-10T18:58:41.495Z,2.00
2018-09-10T19:01:11.640Z,3.17
2018-09-10T19:03:41.466Z,2.50
2018-09-10T19:06:11.438Z,2.17
2018-09-10T19:08:41.403Z,2.60
2018-09-10T19:11:11.363Z,2.60
2018-09-10T19:13:41.366Z,2.20
2018-09-10T19:16:11.420Z,2.80
2018-09-10T19:18:41.872Z,3.20
2018-09-10T19:21:11.983Z,3.03
2018-09-10T19:23:42.014Z,2.30
2018-09-10T19:26:11.999Z,1.73
2018-09-10T19:28:41.934Z,2.60
2018-09-10T19:31:11.956Z,1.90
2018-09-10T19:33:42.139Z,2.57
2018-09-10T19:36:12.165Z,2.77
2018-09-10T19:38:42.166Z,2.87
2018-09-10T19:41:12.096Z,2.33
2018-09-10T19:43:42.143Z,2.63
2018-09-10T19:46:12.133Z,2.80
2018-09-10T19:48:42.054Z,2.70
2018-09-10T19:51:12.071Z,2.80
2018-09-10T19:53:42.085Z,3.43
2018-09-10T19:56:12.053Z,2.37
2018-09-10T19:58:42.124Z,2.70
2018-09-10T20:01:12.107Z,2.73
2018-09-10T20:06:16.536Z,2.90
2018-09-10T20:08:46.885Z,2.20
2018-09-10T20:11:16.897Z,2.67
2018-09-10T20:13:46.962Z,3.03
2018-09-10T20:16:17.020Z,2.90
2018-09-10T20:18:47.143Z,3.77
2018-09-10T20:21:17.351Z,3.50
2018-09-10T20:23:47.428Z,2.80
2018-09-10T20:26:17.496Z,3.23
2018-09-10T20:28:47.553Z,2.93
2018-09-10T20:31:17.691Z,2.90
2018-09-10T20:33:53.117Z,3.17
2018-09-10T20:36:23.104Z,2.80
2018-09-10T20:38:53.205Z,2.60
2018-09-10T20:41:23.214Z,3.37
2018-09-10T20:43:53.203Z,2.90
2018-09-10T20:46:23.261Z,3.10
2018-09-10T20:48:53.265Z,2.80
2018-09-10T20:51:23.341Z,2.80
2018-09-10T20:53:53.309Z,3.10
2018-09-10T20:56:23.990Z,2.40
2018-09-10T20:58:54.699Z,3.10
2018-09-10T21:01:24.919Z,2.80
2018-09-10T21:03:55.165Z,3.17
2018-09-10T21:06:26.792Z,2.80
2018-09-10T21:08:56.706Z,3.07
2018-09-10T21:11:27.766Z,2.60
2018-09-10T21:13:58.363Z,2.87
2018-09-10T21:16:28.433Z,3.13
2018-09-10T21:19:00.404Z,2.90
2018-09-10T21:21:30.451Z,3.10
2018-09-10T21:24:00.488Z,2.87
2018-09-10T21:26:30.660Z,2.83
2018-09-10T21:29:00.652Z,2.40
2018-09-10T21:31:30.566Z,3.23
2018-09-10T21:34:00.542Z,3.20
2018-09-10T21:36:30.636Z,3.10
2018-09-10T21:39:00.651Z,2.87
2018-09-10T21:41:30.679Z,2.60
2018-09-10T21:44:00.705Z,3.17
2018-09-10T21:46:30.801Z,3.90
2018-09-10T21:49:00.881Z,3.13
2018-09-10T21:51:30.915Z,3.10
2018-09-10T21:54:00.978Z,2.60
2018-09-10T21:56:30.958Z,2.90
2018-09-10T21:59:00.994Z,2.73
2018-09-10T22:01:30.950Z,3.00
2018-09-10T22:04:00.967Z,2.73
2018-09-10T22:06:30.977Z,3.30
2018-09-10T22:09:00.931Z,2.77
2018-09-10T22:11:31.113Z,2.77
2018-09-10T22:14:01.169Z,3.27
2018-09-10T22:16:31.128Z,2.93
2018-09-10T22:19:01.282Z,3.27
2018-09-10T22:21:31.222Z,3.00
2018-09-10T22:24:01.204Z,3.30
2018-09-10T22:26:31.288Z,2.73
2018-09-10T22:29:01.276Z,2.87
2018-09-10T22:31:31.328Z,2.93
2018-09-10T22:34:01.336Z,3.13
2018-09-10T22:36:31.423Z,3.63
2018-09-10T22:39:01.379Z,3.23
2018-09-10T22:41:31.347Z,3.00
2018-09-10T22:44:01.351Z,3.30
2018-09-10T22:46:31.255Z,2.97
2018-09-10T22:49:01.259Z,2.67
2018-09-10T22:51:31.248Z,3.10
2018-09-10T22:54:01.362Z,3.13
2018-09-10T22:56:31.388Z,2.27
2018-09-10T22:59:01.364Z,3.33
2018-09-10T23:01:31.349Z,3.83
2018-09-10T23:04:01.347Z,3.07
2018-09-10T23:06:31.403Z,2.93
2018-09-10T23:09:01.427Z,3.17
2018-09-10T23:11:31.438Z,3.30
2018-09-10T23:14:01.456Z,3.10
2018-09-10T23:16:31.547Z,2.93
2018-09-10T23:19:01.576Z,3.27
2018-09-10T23:21:31.506Z,3.50
2018-09-10T23:24:01.513Z,2.53
2018-09-10T23:26:31.464Z,2.47
2018-09-10T23:29:01.431Z,3.20
2018-09-10T23:31:31.431Z,3.00
2018-09-10T23:34:01.417Z,2.50
2018-09-10T23:36:31.408Z,3.20
2018-09-10T23:39:01.373Z,3.10
2018-09-10T23:41:31.395Z,2.73
2018-09-10T23:44:01.421Z,2.50
2018-09-10T23:46:31.366Z,3.00
2018-09-10T23:49:01.364Z,2.87
2018-09-10T23:51:31.395Z,2.87
2018-09-10T23:54:01.376Z,2.37
2018-09-10T23:56:31.471Z,2.70
2018-09-10T23:59:01.450Z,2.40
